Time;durP1;ratioP1;P1;durP2;ratioP2;P2;SDS_P1;SDS_P2;PMS_P1;PMS_P2;Temp;Humidity;BMP_temperature;BMP_pressure;BME280_temperature;BME280_humidity;BME280_pressure;Samples;Min_cycle;Max_cycle;Signal;HPM_P1;HPM_P2
2022/06/18 00:00:15;;;;;;;;;;;;;;;;;;4989094;28;20624;-60
2022/06/18 00:02:41;;;;;;;;;;;;;;;;;;4982866;28;20354;-59
2022/06/18 00:05:06;;;;;;;;;;;;;;;;;;4975752;28;20026;-59
2022/06/18 00:07:32;;;;;;;;;;;;;;;;;;4984354;28;20397;-60
2022/06/18 00:09:57;;;;;;;;;;;;;;;;;;4979046;28;19929;-58
2022/06/18 00:15:06;;;;;;;;;;;;;;;;;;4985096;28;19968;-59
2022/06/18 00:17:31;;;;;;;;;;;;;;;;;;4984178;28;20024;-59
2022/06/18 00:19:56;;;;;;;;;;;;;;;;;;4989827;28;19928;-60
2022/06/18 00:22:22;;;;;;;;;;;;;;;;;;4985361;28;20008;-59
2022/06/18 00:24:47;;;;;;;;;;;;;;;;;;4990710;28;19921;-58
2022/06/18 00:27:12;;;;;;;;;;;;;;;;;;4970343;28;20381;-59
2022/06/18 00:29:37;;;;;;;;;;;;;;;;;;4966588;28;19934;-59
2022/06/18 00:32:03;;;;;;;;;;;;;;;;;;4987563;28;20185;-59
2022/06/18 00:34:28;;;;;;;;;;;;;;;;;;4962880;28;19973;-60
2022/06/18 00:36:53;;;;;;;;;;;;;;;;;;4987311;28;20723;-58
2022/06/18 00:39:18;;;;;;;;;;;;;;;;;;4966478;28;19921;-58
2022/06/18 00:41:44;;;;;;;;;;;;;;;;;;4980731;28;20459;-58
2022/06/18 00:44:09;;;;;;;;;;;;;;;;;;4981636;28;19944;-60
2022/06/18 00:46:35;;;;;;;;;;;;;;;;;;4976539;28;20810;-58
2022/06/18 00:49:00;;;;;;;;;;;;;;;;;;4986767;28;19917;-57
2022/06/18 00:51:26;;;;;;;;;;;;;;;;;;4968549;28;19972;-59
2022/06/18 00:53:51;;;;;;;;;;;;;;;;;;4966628;28;20330;-58
2022/06/18 00:56:16;;;;;;;;;;;;;;;;;;4972200;28;19918;-59
2022/06/18 00:58:41;;;;;;;;;;;;;;;;;;4978894;28;19917;-58
2022/06/18 01:01:07;;;;;;;;;;;;;;;;;;4987922;28;19917;-58
2022/06/18 01:03:32;;;;;;;;;;;;;;;;;;4966339;28;19923;-58
2022/06/18 01:06:00;;;;;;;;;;;;;;;;;;4968968;28;20028;-59
2022/06/18 01:08:26;;;;;;;;;;;;;;;;;;4970647;28;20047;-60
2022/06/18 01:10:51;;;;;;;;;;;;;;;;;;4965152;28;19929;-60
2022/06/18 01:13:17;;;;;;;;;;;;;;;;;;4972466;28;20000;-60
2022/06/18 01:15:42;;;;;;;;;;;;;;;;;;4978631;28;20449;-59
2022/06/18 01:18:07;;;;;;;;;;;;;;;;;;4966921;28;20330;-59
2022/06/18 01:20:33;;;;;;;;;;;;;;;;;;4970499;28;21246;-58
2022/06/18 01:22:58;;;;;;;;;;;;;;;;;;4967579;28;20318;-59
2022/06/18 01:25:23;;;;;;;;;;;;;;;;;;4968661;28;20234;-61
2022/06/18 01:27:50;;;;;;;;;;;;;;;;;;4970366;28;20284;-60
2022/06/18 01:30:21;;;;;;;;;;;;;;;;;;4965024;28;20240;-60
2022/06/18 01:32:47;;;;;;;;;;;;;;;;;;4968169;28;19921;-60
2022/06/18 01:35:12;;;;;;;;;;;;;;;;;;4965874;28;19923;-59
2022/06/18 01:37:52;;;;;;;;;;;;;;;;;;4973526;28;20008;-59
2022/06/18 01:40:25;;;;;;;;;;;;;;;;;;4970889;28;19925;-58
2022/06/18 01:42:50;;;;;;;;;;;;;;;;;;4979612;28;19917;-61
2022/06/18 01:45:15;;;;;;;;;;;;;;;;;;4981554;28;19924;-59
2022/06/18 01:47:44;;;;;;;;;;;;;;;;;;4975037;28;20024;-59
2022/06/18 01:50:09;;;;;;;;;;;;;;;;;;4973119;28;19982;-59
2022/06/18 01:52:35;;;;;;;;;;;;;;;;;;4994078;28;19925;-58
2022/06/18 01:55:04;;;;;;;;;;;;;;;;;;4976386;28;19996;-60
2022/06/18 01:57:30;;;;;;;;;;;;;;;;;;4982647;28;20445;-59
2022/06/18 01:59:55;;;;;;;;;;;;;;;;;;4989476;28;20295;-60
2022/06/18 02:02:26;;;;;;;;;;;;;;;;;;4975645;28;20353;-58
2022/06/18 02:04:51;;;;;;;;;;;;;;;;;;4984111;28;19917;-59
2022/06/18 02:07:16;;;;;;;;;;;;;;;;;;4988653;28;20292;-58
2022/06/18 02:09:41;;;;;;;;;;;;;;;;;;4994290;28;19922;-60
2022/06/18 02:12:07;;;;;;;;;;;;;;;;;;4976960;28;19929;-59
2022/06/18 02:14:33;;;;;;;;;;;;;;;;;;4990367;28;20113;-59
2022/06/18 02:16:58;;;;;;;;;;;;;;;;;;4977288;28;20461;-58
2022/06/18 02:19:23;;;;;;;;;;;;;;;;;;4975479;28;19980;-58
2022/06/18 02:21:48;;;;;;;;;;;;;;;;;;4996240;28;19928;-59
2022/06/18 02:24:13;;;;;;;;;;;;;;;;;;4971177;28;19924;-59
2022/06/18 02:26:41;;;;;;;;;;;;;;;;;;4979066;28;20209;-59
2022/06/18 02:29:06;;;;;;;;;;;;;;;;;;4983463;28;20012;-60
2022/06/18 02:31:31;;;;;;;;;;;;;;;;;;4976960;28;19924;-60
2022/06/18 02:33:57;;;;;;;;;;;;;;;;;;4976175;28;20022;-59
2022/06/18 02:36:23;;;;;;;;;;;;;;;;;;4988379;28;19929;-59
2022/06/18 02:38:48;;;;;;;;;;;;;;;;;;4987011;28;20151;-59
2022/06/18 02:41:14;;;;;;;;;;;;;;;;;;4982326;28;19925;-59
2022/06/18 02:43:40;;;;;;;;;;;;;;;;;;4988514;28;19918;-61
2022/06/18 02:46:05;;;;;;;;;;;;;;;;;;4975820;28;20095;-59
2022/06/18 02:48:30;;;;;;;;;;;;;;;;;;4981763;28;19918;-58
2022/06/18 02:50:55;;;;;;;;;;;;;;;;;;4970873;28;19976;-57
2022/06/18 02:53:21;;;;;;;;;;;;;;;;;;4974529;28;19917;-59
2022/06/18 02:55:46;;;;;;;;;;;;;;;;;;4981563;28;20025;-59
2022/06/18 02:58:11;;;;;;;;;;;;;;;;;;4971303;28;19917;-58
2022/06/18 03:00:37;;;;;;;;;;;;;;;;;;4968100;28;19921;-59
2022/06/18 03:03:03;;;;;;;;;;;;;;;;;;4982397;28;19925;-59
2022/06/18 03:05:28;;;;;;;;;;;;;;;;;;4986338;28;19921;-60
2022/06/18 03:07:54;;;;;;;;;;;;;;;;;;4981827;28;19957;-59
2022/06/18 03:13:03;;;;;;;;;;;;;;;;;;4968956;28;19953;-58
2022/06/18 03:15:31;;;;;;;;;;;;;;;;;;4964474;28;19917;-59
2022/06/18 03:17:56;;;;;;;;;;;;;;;;;;4974007;28;19921;-58
2022/06/18 03:20:22;;;;;;;;;;;;;;;;;;4980284;28;19917;-59
2022/06/18 03:22:47;;;;;;;;;;;;;;;;;;4969875;28;19921;-58
2022/06/18 03:25:13;;;;;;;;;;;;;;;;;;4977673;28;19921;-59
2022/06/18 03:27:38;;;;;;;;;;;;;;;;;;4966393;28;19921;-57
2022/06/18 03:30:05;;;;;;;;;;;;;;;;;;4973910;28;20004;-58
2022/06/18 03:32:30;;;;;;;;;;;;;;;;;;4965163;28;19918;-60
2022/06/18 03:34:56;;;;;;;;;;;;;;;;;;4967515;28;20636;-61
2022/06/18 03:37:22;;;;;;;;;;;;;;;;;;4976051;28;19921;-58
2022/06/18 03:39:47;;;;;;;;;;;;;;;;;;4979127;28;19988;-59
2022/06/18 03:42:13;;;;;;;;;;;;;;;;;;4968206;28;19918;-59
2022/06/18 03:44:38;;;;;;;;;;;;;;;;;;4966445;28;19921;-59
2022/06/18 03:47:05;;;;;;;;;;;;;;;;;;4966150;28;20319;-60
2022/06/18 03:49:34;;;;;;;;;;;;;;;;;;4974416;28;19925;-59
2022/06/18 03:52:00;;;;;;;;;;;;;;;;;;4965947;28;19968;-59
2022/06/18 03:54:26;;;;;;;;;;;;;;;;;;4976758;28;20357;-59
2022/06/18 03:56:51;;;;;;;;;;;;;;;;;;4988092;28;20365;-58
2022/06/18 03:59:16;;;;;;;;;;;;;;;;;;4983692;28;20287;-60
2022/06/18 04:01:42;;;;;;;;;;;;;;;;;;4981928;28;19992;-60
2022/06/18 04:04:09;;;;;;;;;;;;;;;;;;4975389;28;19922;-59
2022/06/18 04:06:38;;;;;;;;;;;;;;;;;;4983106;28;19918;-59
2022/06/18 04:09:18;;;;;;;;;;;;;;;;;;4971409;28;19933;-58
2022/06/18 04:11:43;;;;;;;;;;;;;;;;;;4985542;28;20335;-59
2022/06/18 04:14:08;;;;;;;;;;;;;;;;;;4975969;28;19921;-58
2022/06/18 04:16:54;;;;;;;;;;;;;;;;;;4974337;28;20401;-59
2022/06/18 04:19:21;;;;;;;;;;;;;;;;;;4975580;28;20299;-59
2022/06/18 04:21:46;;;;;;;;;;;;;;;;;;4980336;28;20697;-59
2022/06/18 04:24:12;;;;;;;;;;;;;;;;;;4974668;28;19936;-58
2022/06/18 04:26:42;;;;;;;;;;;;;;;;;;4979999;28;19957;-59
2022/06/18 04:29:07;;;;;;;;;;;;;;;;;;4973156;28;20012;-58
2022/06/18 04:31:33;;;;;;;;;;;;;;;;;;4975419;28;19917;-58
2022/06/18 04:33:58;;;;;;;;;;;;;;;;;;4977993;28;19919;-58
2022/06/18 04:36:32;;;;;;;;;;;;;;;;;;4974518;28;19968;-58
2022/06/18 04:38:59;;;;;;;;;;;;;;;;;;4979758;28;20421;-63
2022/06/18 04:41:37;;;;;;;;;;;;;;;;;;4983773;28;20004;-57
2022/06/18 04:44:10;;;;;;;;;;;;;;;;;;4967057;28;19921;-58
2022/06/18 04:46:36;;;;;;;;;;;;;;;;;;4974276;28;19976;-60
2022/06/18 04:49:01;;;;;;;;;;;;;;;;;;4982217;28;20024;-59
2022/06/18 04:51:27;;;;;;;;;;;;;;;;;;4993602;28;19986;-58
2022/06/18 04:53:53;;;;;;;;;;;;;;;;;;4975638;28;19917;-58
2022/06/18 04:56:18;;;;;;;;;;;;;;;;;;4967176;28;19975;-59
2022/06/18 04:58:45;;;;;;;;;;;;;;;;;;4974488;28;19987;-59
2022/06/18 05:01:10;;;;;;;;;;;;;;;;;;4972760;28;20429;-58
2022/06/18 05:03:54;;;;;;;;;;;;;;;;;;4983613;28;19969;-59
2022/06/18 05:06:43;;;;;;;;;;;;;;;;;;4992670;28;20474;-58
2022/06/18 05:09:26;;;;;;;;;;;;;;;;;;4984135;28;19978;-58
2022/06/18 05:12:12;;;;;;;;;;;;;;;;;;4965962;28;19940;-58
2022/06/18 05:15:08;;;;;;;;;;;;;;;;;;4990786;28;19918;-59
2022/06/18 05:17:33;;;;;;;;;;;;;;;;;;4976008;28;20385;-58
2022/06/18 05:19:58;;;;;;;;;;;;;;;;;;4973117;28;19922;-58
2022/06/18 05:22:24;;;;;;;;;;;;;;;;;;4977722;28;19928;-59
2022/06/18 05:24:54;;;;;;;;;;;;;;;;;;4969177;28;19918;-59
2022/06/18 05:27:19;;;;;;;;;;;;;;;;;;4976582;28;19955;-59
2022/06/18 05:29:44;;;;;;;;;;;;;;;;;;4981012;28;20244;-59
2022/06/18 05:32:09;;;;;;;;;;;;;;;;;;4972287;28;20398;-58
2022/06/18 05:34:37;;;;;;;;;;;;;;;;;;4990491;28;19959;-59
2022/06/18 05:37:02;;;;;;;;;;;;;;;;;;4973509;28;20094;-60
2022/06/18 05:39:27;;;;;;;;;;;;;;;;;;4971232;28;20165;-58
2022/06/18 05:41:52;;;;;;;;;;;;;;;;;;4967347;28;19917;-59
2022/06/18 05:44:18;;;;;;;;;;;;;;;;;;4970376;28;20191;-59
2022/06/18 05:46:43;;;;;;;;;;;;;;;;;;4988902;28;19917;-59
2022/06/18 05:49:08;;;;;;;;;;;;;;;;;;4968152;28;19991;-60
2022/06/18 05:51:33;;;;;;;;;;;;;;;;;;4980918;28;19918;-59
2022/06/18 05:53:59;;;;;;;;;;;;;;;;;;4973139;28;19922;-60
2022/06/18 05:56:57;;;;;;;;;;;;;;;;;;4981402;28;19921;-60
2022/06/18 05:59:34;;;;;;;;;;;;;;;;;;4976819;28;20493;-59
2022/06/18 06:01:59;;;;;;;;;;;;;;;;;;4985356;28;19921;-59
2022/06/18 06:04:26;;;;;;;;;;;;;;;;;;4974701;28;20563;-59
2022/06/18 06:06:52;;;;;;;;;;;;;;;;;;4982266;28;20479;-60
2022/06/18 06:11:28;;;;;;;;;;;;;;;;;;4975891;28;19913;-59
2022/06/18 06:12:03;;;;;;;;;;;;;;;;;;4975994;28;19918;-59
2022/06/18 06:14:28;;;;;;;;;;;;;;;;;;4962803;28;19918;-59
2022/06/18 06:16:53;;;;;;;;;;;;;;;;;;4981655;28;19924;-60
2022/06/18 06:19:19;;;;;;;;;;;;;;;;;;4979656;28;19921;-59
2022/06/18 06:21:44;;;;;;;;;;;;;;;;;;4986676;28;19917;-59
2022/06/18 06:24:10;;;;;;;;;;;;;;;;;;4993444;28;19917;-59
2022/06/18 06:26:35;;;;;;;;;;;;;;;;;;4984307;28;19917;-59
2022/06/18 06:29:00;;;;;;;;;;;;;;;;;;4972968;28;19921;-59
2022/06/18 06:31:26;;;;;;;;;;;;;;;;;;4979829;28;19930;-58
2022/06/18 06:33:51;;;;;;;;;;;;;;;;;;4981993;28;20430;-59
2022/06/18 06:36:17;;;;;;;;;;;;;;;;;;4990467;28;19917;-59
2022/06/18 06:38:42;;;;;;;;;;;;;;;;;;4976204;28;20303;-59
2022/06/18 06:41:07;;;;;;;;;;;;;;;;;;4971338;28;19948;-60
2022/06/18 06:43:33;;;;;;;;;;;;;;;;;;4981259;28;19917;-59
2022/06/18 06:45:58;;;;;;;;;;;;;;;;;;4987610;28;20450;-60
2022/06/18 06:48:23;;;;;;;;;;;;;;;;;;4990890;28;19964;-60
2022/06/18 06:50:48;;;;;;;;;;;;;;;;;;4986769;28;19975;-59
2022/06/18 06:53:13;;;;;;;;;;;;;;;;;;4984692;28;20337;-59
2022/06/18 06:58:23;;;;;;;;;;;;;;;;;;4986267;28;19914;-59
2022/06/18 07:00:48;;;;;;;;;;;;;;;;;;4992333;28;19928;-59
2022/06/18 07:03:13;;;;;;;;;;;;;;;;;;4985447;28;19925;-58
2022/06/18 07:05:38;;;;;;;;;;;;;;;;;;4980372;28;19922;-59
2022/06/18 07:08:04;;;;;;;;;;;;;;;;;;4990541;28;19925;-59
2022/06/18 07:10:29;;;;;;;;;;;;;;;;;;4982525;28;19929;-58
2022/06/18 07:12:54;;;;;;;;;;;;;;;;;;4985329;28;19925;-59
2022/06/18 07:15:19;;;;;;;;;;;;;;;;;;4997971;28;20718;-58
2022/06/18 07:17:44;;;;;;;;;;;;;;;;;;4994269;28;19917;-59
2022/06/18 07:20:10;;;;;;;;;;;;;;;;;;4998867;28;19913;-59
2022/06/18 07:22:35;;;;;;;;;;;;;;;;;;4994217;28;19957;-59
2022/06/18 07:25:00;;;;;;;;;;;;;;;;;;4993329;28;19917;-59
2022/06/18 07:27:26;;;;;;;;;;;;;;;;;;4993710;28;20020;-61
2022/06/18 07:29:52;;;;;;;;;;;;;;;;;;4998191;28;20016;-59
2022/06/18 07:32:17;;;;;;;;;;;;;;;;;;4999398;28;19917;-59
2022/06/18 07:34:42;;;;;;;;;;;;;;;;;;4983160;28;19918;-59
2022/06/18 07:37:08;;;;;;;;;;;;;;;;;;4985257;28;19925;-58
2022/06/18 07:39:33;;;;;;;;;;;;;;;;;;4985027;28;20282;-58
2022/06/18 07:41:58;;;;;;;;;;;;;;;;;;4990691;28;19924;-58
2022/06/18 07:44:23;;;;;;;;;;;;;;;;;;4991955;28;19964;-59
2022/06/18 07:46:49;;;;;;;;;;;;;;;;;;4995181;28;20124;-58
2022/06/18 07:49:14;;;;;;;;;;;;;;;;;;4999533;28;19972;-59
2022/06/18 07:51:39;;;;;;;;;;;;;;;;;;4995186;28;19964;-59
2022/06/18 07:54:04;;;;;;;;;;;;;;;;;;4999197;28;20032;-58
2022/06/18 07:56:30;;;;;;;;;;;;;;;;;;4983077;28;19980;-60
2022/06/18 07:58:55;;;;;;;;;;;;;;;;;;4983831;28;20001;-60
2022/06/18 08:01:20;;;;;;;;;;;;;;;;;;4995583;28;19918;-59
2022/06/18 08:03:45;;;;;;;;;;;;;;;;;;4999028;28;19921;-58
2022/06/18 08:06:11;;;;;;;;;;;;;;;;;;4996686;28;19918;-58
2022/06/18 08:08:36;;;;;;;;;;;;;;;;;;4995414;28;19913;-60
2022/06/18 08:11:02;;;;;;;;;;;;;;;;;;4996138;28;19951;-58
2022/06/18 08:13:27;;;;;;;;;;;;;;;;;;4998342;28;20437;-58
2022/06/18 08:15:53;;;;;;;;;;;;;;;;;;4993213;28;19924;-59
2022/06/18 08:18:18;;;;;;;;;;;;;;;;;;4998039;28;20293;-59
2022/06/18 08:20:43;;;;;;;;;;;;;;;;;;4997538;28;20318;-60
2022/06/18 08:23:09;;;;;;;;;;;;;;;;;;4992164;28;19921;-63
2022/06/18 08:25:34;;;;;;;;;;;;;;;;;;4941791;28;20335;-59
2022/06/18 08:27:59;;;;;;;;;;;;;;;;;;4972974;28;19929;-59
2022/06/18 08:30:24;;;;;;;;;;;;;;;;;;4978244;28;19926;-59
2022/06/18 08:32:49;;;;;;;;;;;;;;;;;;4974267;28;20696;-60
2022/06/18 08:35:15;;;;;;;;;;;;;;;;;;4978398;28;20546;-60
2022/06/18 08:37:40;;;;;;;;;;;;;;;;;;4981449;28;19917;-59
2022/06/18 08:40:05;;;;;;;;;;;;;;;;;;4973673;28;19918;-59
2022/06/18 08:42:30;;;;;;;;;;;;;;;;;;4974569;28;19918;-59
2022/06/18 08:44:55;;;;;;;;;;;;;;;;;;4977049;28;20386;-59
2022/06/18 08:47:21;;;;;;;;;;;;;;;;;;4976818;28;19952;-59
2022/06/18 08:49:46;;;;;;;;;;;;;;;;;;4978596;28;19991;-59
2022/06/18 08:52:11;;;;;;;;;;;;;;;;;;4984570;28;19918;-60
2022/06/18 08:54:36;;;;;;;;;;;;;;;;;;4980418;28;19917;-60
2022/06/18 08:57:02;;;;;;;;;;;;;;;;;;4975596;28;19925;-59
2022/06/18 08:59:27;;;;;;;;;;;;;;;;;;4986637;28;19918;-60
2022/06/18 09:01:52;;;;;;;;;;;;;;;;;;4985001;28;20371;-59
2022/06/18 09:04:17;;;;;;;;;;;;;;;;;;4976353;28;19918;-59
2022/06/18 09:06:43;;;;;;;;;;;;;;;;;;4982520;28;20349;-59
2022/06/18 09:09:08;;;;;;;;;;;;;;;;;;4974888;28;19917;-60
2022/06/18 09:11:33;;;;;;;;;;;;;;;;;;4984586;28;19926;-60
2022/06/18 09:13:58;;;;;;;;;;;;;;;;;;4974856;28;19960;-58
2022/06/18 09:16:23;;;;;;;;;;;;;;;;;;4977063;28;20275;-60
2022/06/18 09:18:49;;;;;;;;;;;;;;;;;;4978002;28;20385;-59
2022/06/18 09:21:14;;;;;;;;;;;;;;;;;;4979754;28;19960;-60
2022/06/18 09:23:39;;;;;;;;;;;;;;;;;;4978454;28;20099;-59
2022/06/18 09:26:04;;;;;;;;;;;;;;;;;;4976189;28;19926;-59
2022/06/18 09:28:30;;;;;;;;;;;;;;;;;;4972091;28;20419;-58
2022/06/18 09:30:55;;;;;;;;;;;;;;;;;;4979214;28;20465;-59
2022/06/18 09:33:20;;;;;;;;;;;;;;;;;;4975248;28;19918;-60
2022/06/18 09:35:45;;;;;;;;;;;;;;;;;;4975132;28;19921;-59
2022/06/18 09:38:10;;;;;;;;;;;;;;;;;;4977261;28;19918;-60
2022/06/18 09:40:36;;;;;;;;;;;;;;;;;;4978017;28;19917;-59
2022/06/18 09:43:01;;;;;;;;;;;;;;;;;;4980512;28;20347;-59
2022/06/18 09:45:26;;;;;;;;;;;;;;;;;;4976804;28;19924;-59
2022/06/18 09:47:52;;;;;;;;;;;;;;;;;;4972895;28;19918;-59
2022/06/18 09:50:17;;;;;;;;;;;;;;;;;;4972619;28;20323;-59
2022/06/18 09:52:43;;;;;;;;;;;;;;;;;;4975663;28;20405;-59
2022/06/18 09:55:08;;;;;;;;;;;;;;;;;;4974536;28;19937;-59
2022/06/18 09:57:33;;;;;;;;;;;;;;;;;;4974851;28;19926;-60
2022/06/18 09:59:58;;;;;;;;;;;;;;;;;;4966243;28;19929;-60
2022/06/18 10:02:23;;;;;;;;;;;;;;;;;;4970814;28;20421;-59
2022/06/18 10:07:33;;;;;;;;;;;;;;;;;;4970379;28;19925;-60
2022/06/18 10:09:58;;;;;;;;;;;;;;;;;;4970699;28;19973;-60
2022/06/18 10:12:23;;;;;;;;;;;;;;;;;;4974094;28;19921;-60
2022/06/18 10:14:48;;;;;;;;;;;;;;;;;;4989094;28;19918;-61
2022/06/18 10:17:14;;;;;;;;;;;;;;;;;;4976130;28;19925;-59
2022/06/18 10:19:39;;;;;;;;;;;;;;;;;;4975044;28;19925;-58
2022/06/18 10:22:04;;;;;;;;;;;;;;;;;;4990996;28;19921;-58
2022/06/18 10:24:29;;;;;;;;;;;;;;;;;;4975759;28;19968;-58
2022/06/18 10:26:54;;;;;;;;;;;;;;;;;;4976200;28;20398;-59
2022/06/18 10:29:20;;;;;;;;;;;;;;;;;;4988405;28;19932;-59
2022/06/18 10:31:45;;;;;;;;;;;;;;;;;;4985087;28;19918;-59
2022/06/18 10:34:10;;;;;;;;;;;;;;;;;;4986645;28;19918;-59
2022/06/18 10:36:35;;;;;;;;;;;;;;;;;;4981616;28;19929;-58
2022/06/18 10:39:01;;;;;;;;;;;;;;;;;;4980585;28;19930;-59
2022/06/18 10:41:26;;;;;;;;;;;;;;;;;;4980049;28;19914;-60
2022/06/18 10:43:51;;;;;;;;;;;;;;;;;;4981275;28;20704;-59
2022/06/18 10:46:16;;;;;;;;;;;;;;;;;;4978117;28;20318;-59
2022/06/18 10:48:41;;;;;;;;;;;;;;;;;;4978059;28;20422;-59
2022/06/18 10:51:07;;;;;;;;;;;;;;;;;;4980432;28;19971;-60
2022/06/18 10:53:32;;;;;;;;;;;;;;;;;;4982837;28;19922;-60
2022/06/18 10:55:57;;;;;;;;;;;;;;;;;;4976377;28;19917;-59
2022/06/18 10:58:22;;;;;;;;;;;;;;;;;;4971179;28;19921;-59
2022/06/18 11:00:47;;;;;;;;;;;;;;;;;;4979093;28;19957;-58
2022/06/18 11:03:13;;;;;;;;;;;;;;;;;;4979366;28;20677;-59
2022/06/18 11:05:38;;;;;;;;;;;;;;;;;;4986416;28;20669;-59
2022/06/18 11:08:03;;;;;;;;;;;;;;;;;;4983355;28;20450;-60
2022/06/18 11:10:28;;;;;;;;;;;;;;;;;;4976722;28;20291;-60
2022/06/18 11:12:53;;;;;;;;;;;;;;;;;;4976319;28;19933;-58
2022/06/18 11:15:19;;;;;;;;;;;;;;;;;;4944651;28;19922;-60
2022/06/18 11:17:44;;;;;;;;;;;;;;;;;;4964099;28;20395;-59
2022/06/18 11:20:09;;;;;;;;;;;;;;;;;;4964645;28;20994;-59
2022/06/18 11:22:34;;;;;;;;;;;;;;;;;;4960511;28;19914;-60
2022/06/18 11:24:59;;;;;;;;;;;;;;;;;;4954267;28;19918;-59
2022/06/18 11:27:25;;;;;;;;;;;;;;;;;;4947020;28;19930;-61
2022/06/18 11:29:50;;;;;;;;;;;;;;;;;;4949170;28;19926;-59
2022/06/18 11:32:15;;;;;;;;;;;;;;;;;;4947160;28;19996;-59
2022/06/18 11:34:40;;;;;;;;;;;;;;;;;;4948422;28;19918;-60
2022/06/18 11:37:06;;;;;;;;;;;;;;;;;;4945577;28;19925;-60
2022/06/18 11:39:32;;;;;;;;;;;;;;;;;;4960619;28;19925;-59
2022/06/18 11:41:58;;;;;;;;;;;;;;;;;;4957569;28;19959;-60
2022/06/18 11:44:23;;;;;;;;;;;;;;;;;;4960963;28;19918;-60
2022/06/18 11:46:48;;;;;;;;;;;;;;;;;;4957101;28;19925;-60
2022/06/18 11:49:13;;;;;;;;;;;;;;;;;;4961619;28;19953;-60
2022/06/18 11:51:38;;;;;;;;;;;;;;;;;;4950971;28;19992;-60
2022/06/18 11:54:04;;;;;;;;;;;;;;;;;;4959661;28;19988;-59
2022/06/18 11:56:29;;;;;;;;;;;;;;;;;;4948383;28;19983;-59
2022/06/18 11:58:56;;;;;;;;;;;;;;;;;;4957120;28;20303;-60
2022/06/18 12:01:21;;;;;;;;;;;;;;;;;;4971944;28;20789;-60
2022/06/18 12:03:46;;;;;;;;;;;;;;;;;;4962228;28;19922;-60
2022/06/18 12:06:12;;;;;;;;;;;;;;;;;;4957062;28;19922;-59
2022/06/18 12:08:38;;;;;;;;;;;;;;;;;;4968268;28;19918;-59
2022/06/18 12:11:05;;;;;;;;;;;;;;;;;;4956682;28;19981;-60
2022/06/18 12:13:32;;;;;;;;;;;;;;;;;;4953897;28;19918;-60
2022/06/18 12:15:57;;;;;;;;;;;;;;;;;;4954724;28;19918;-60
2022/06/18 12:18:22;;;;;;;;;;;;;;;;;;4954724;28;19925;-60
2022/06/18 12:20:48;;;;;;;;;;;;;;;;;;4954302;28;19961;-60
2022/06/18 12:23:13;;;;;;;;;;;;;;;;;;4955310;28;19956;-61
2022/06/18 12:25:38;;;;;;;;;;;;;;;;;;4953674;28;19957;-61
2022/06/18 12:28:03;;;;;;;;;;;;;;;;;;4953788;28;19954;-61
2022/06/18 12:30:29;;;;;;;;;;;;;;;;;;4955716;28;20822;-60
2022/06/18 12:32:54;;;;;;;;;;;;;;;;;;4955026;28;19918;-61
2022/06/18 12:35:19;;;;;;;;;;;;;;;;;;4953347;28;19929;-61
2022/06/18 12:37:44;;;;;;;;;;;;;;;;;;4956204;28;19918;-61
2022/06/18 12:40:09;;;;;;;;;;;;;;;;;;4957053;28;19930;-61
2022/06/18 12:42:35;;;;;;;;;;;;;;;;;;4953275;28;19919;-61
2022/06/18 12:45:00;;;;;;;;;;;;;;;;;;4951165;28;19943;-61
2022/06/18 12:47:25;;;;;;;;;;;;;;;;;;4953463;28;19918;-61
2022/06/18 12:49:50;;;;;;;;;;;;;;;;;;4953842;28;19934;-61
2022/06/18 12:52:16;;;;;;;;;;;;;;;;;;4940908;28;20462;-61
2022/06/18 12:54:41;;;;;;;;;;;;;;;;;;4955795;28;20419;-61
2022/06/18 12:57:06;;;;;;;;;;;;;;;;;;4954286;28;19937;-61
2022/06/18 12:59:31;;;;;;;;;;;;;;;;;;4949087;28;19918;-60
2022/06/18 13:01:57;;;;;;;;;;;;;;;;;;4964215;28;20033;-61
2022/06/18 13:04:22;;;;;;;;;;;;;;;;;;4954509;28;19918;-60
2022/06/18 13:06:47;;;;;;;;;;;;;;;;;;4953488;28;20380;-61
2022/06/18 13:09:12;;;;;;;;;;;;;;;;;;4943932;28;19922;-60
2022/06/18 13:11:38;;;;;;;;;;;;;;;;;;4952852;28;20307;-61
2022/06/18 13:14:03;;;;;;;;;;;;;;;;;;4952342;28;19918;-61
2022/06/18 13:16:28;;;;;;;;;;;;;;;;;;4962698;28;20387;-60
2022/06/18 13:18:53;;;;;;;;;;;;;;;;;;4967683;28;20431;-60
2022/06/18 13:21:18;;;;;;;;;;;;;;;;;;4955260;28;20570;-60
2022/06/18 13:29:11;;;;;;;;;;;;;;;;;;4955370;28;19922;-61
2022/06/18 13:31:38;;;;;;;;;;;;;;;;;;4948014;28;19933;-60
2022/06/18 13:34:03;;;;;;;;;;;;;;;;;;4945681;28;20732;-60
2022/06/18 13:36:29;;;;;;;;;;;;;;;;;;4943775;28;20375;-59
2022/06/18 13:38:54;;;;;;;;;;;;;;;;;;4965695;28;19918;-60
2022/06/18 13:41:19;;;;;;;;;;;;;;;;;;4950910;28;20247;-60
2022/06/18 13:43:44;;;;;;;;;;;;;;;;;;4952082;28;19966;-59
2022/06/18 13:46:10;;;;;;;;;;;;;;;;;;4951624;28;20039;-61
2022/06/18 13:48:35;;;;;;;;;;;;;;;;;;4958451;28;20049;-60
2022/06/18 13:51:01;;;;;;;;;;;;;;;;;;4958231;28;19937;-60
2022/06/18 13:53:26;;;;;;;;;;;;;;;;;;4947912;28;19972;-60
2022/06/18 13:55:51;;;;;;;;;;;;;;;;;;4955779;28;20465;-60
2022/06/18 13:58:17;;;;;;;;;;;;;;;;;;4954450;28;19960;-60
2022/06/18 14:00:43;;;;;;;;;;;;;;;;;;4965113;28;19925;-60
2022/06/18 14:03:08;;;;;;;;;;;;;;;;;;4946386;28;19954;-60
2022/06/18 14:05:33;;;;;;;;;;;;;;;;;;4954627;28;19980;-60
2022/06/18 14:07:58;;;;;;;;;;;;;;;;;;4940899;28;19918;-61
2022/06/18 14:10:24;;;;;;;;;;;;;;;;;;4945107;28;19926;-60
2022/06/18 14:12:49;;;;;;;;;;;;;;;;;;4967244;28;19919;-60
2022/06/18 14:15:14;;;;;;;;;;;;;;;;;;4951133;28;19918;-60
2022/06/18 14:17:39;;;;;;;;;;;;;;;;;;4957252;28;19918;-61
2022/06/18 14:20:05;;;;;;;;;;;;;;;;;;4943980;28;20403;-61
2022/06/18 14:22:31;;;;;;;;;;;;;;;;;;4952999;28;19929;-61
2022/06/18 14:24:58;;;;;;;;;;;;;;;;;;4978174;28;19918;-61
2022/06/18 14:27:23;;;;;;;;;;;;;;;;;;4961524;28;19918;-62
2022/06/18 14:29:48;;;;;;;;;;;;;;;;;;4957947;28;19936;-62
2022/06/18 14:32:14;;;;;;;;;;;;;;;;;;4966575;28;19918;-61
2022/06/18 14:34:39;;;;;;;;;;;;;;;;;;4966014;28;19918;-61
2022/06/18 14:37:05;;;;;;;;;;;;;;;;;;4954216;28;19919;-61
2022/06/18 14:39:30;;;;;;;;;;;;;;;;;;4949698;28;20350;-61
2022/06/18 14:41:55;;;;;;;;;;;;;;;;;;4956676;28;19923;-61
2022/06/18 14:44:20;;;;;;;;;;;;;;;;;;4955185;28;19965;-61
2022/06/18 14:46:46;;;;;;;;;;;;;;;;;;4956132;28;19949;-62
2022/06/18 14:49:11;;;;;;;;;;;;;;;;;;4955653;28;20202;-61
2022/06/18 14:51:37;;;;;;;;;;;;;;;;;;4957410;28;19923;-61
2022/06/18 14:54:02;;;;;;;;;;;;;;;;;;4954471;28;20375;-61
2022/06/18 14:56:30;;;;;;;;;;;;;;;;;;4956293;28;19925;-61
2022/06/18 14:58:56;;;;;;;;;;;;;;;;;;4968415;28;19933;-61
2022/06/18 15:01:21;;;;;;;;;;;;;;;;;;4956410;28;19922;-61
2022/06/18 15:03:46;;;;;;;;;;;;;;;;;;4955944;28;19957;-61
2022/06/18 15:06:12;;;;;;;;;;;;;;;;;;4970050;28;19914;-61
2022/06/18 15:08:38;;;;;;;;;;;;;;;;;;4953745;28;20331;-61
2022/06/18 15:11:03;;;;;;;;;;;;;;;;;;4955565;28;19934;-61
2022/06/18 15:13:28;;;;;;;;;;;;;;;;;;4956386;28;19921;-61
2022/06/18 15:16:15;;;;;;;;;;;;;;;;;;4956985;28;20462;-60
2022/06/18 15:18:58;;;;;;;;;;;;;;;;;;4957614;28;19922;-61
2022/06/18 15:24:03;;;;;;;;;;;;;;;;;;4968813;28;19918;-61
2022/06/18 15:26:30;;;;;;;;;;;;;;;;;;4961520;28;19918;-60
2022/06/18 15:28:55;;;;;;;;;;;;;;;;;;4959382;28;19945;-61
2022/06/18 15:31:23;;;;;;;;;;;;;;;;;;4971497;28;20382;-61
2022/06/18 15:33:48;;;;;;;;;;;;;;;;;;4958574;28;19984;-61
2022/06/18 15:36:13;;;;;;;;;;;;;;;;;;4949788;28;19922;-61
2022/06/18 15:38:38;;;;;;;;;;;;;;;;;;4961066;28;19954;-61
2022/06/18 15:41:04;;;;;;;;;;;;;;;;;;4957771;28;19929;-61
2022/06/18 15:43:29;;;;;;;;;;;;;;;;;;4961209;28;20291;-61
2022/06/18 15:45:54;;;;;;;;;;;;;;;;;;4960806;28;20366;-61
2022/06/18 15:48:20;;;;;;;;;;;;;;;;;;4969626;28;19918;-62
2022/06/18 15:50:45;;;;;;;;;;;;;;;;;;4942626;28;19989;-60
2022/06/18 15:53:10;;;;;;;;;;;;;;;;;;4959292;28;20092;-61
2022/06/18 15:55:35;;;;;;;;;;;;;;;;;;4954634;28;19918;-61
2022/06/18 15:58:00;;;;;;;;;;;;;;;;;;4955979;28;20743;-61
2022/06/18 16:00:26;;;;;;;;;;;;;;;;;;4959650;28;19918;-61
2022/06/18 16:02:53;;;;;;;;;;;;;;;;;;4956496;28;20012;-61
2022/06/18 16:05:18;;;;;;;;;;;;;;;;;;4967280;28;20260;-61
2022/06/18 16:07:43;;;;;;;;;;;;;;;;;;4962108;28;19918;-61
2022/06/18 16:10:08;;;;;;;;;;;;;;;;;;4942111;28;20032;-61
2022/06/18 16:12:34;;;;;;;;;;;;;;;;;;4959654;28;20000;-61
2022/06/18 16:14:59;;;;;;;;;;;;;;;;;;4956115;28;19925;-61
2022/06/18 16:17:24;;;;;;;;;;;;;;;;;;4946898;28;19918;-61
2022/06/18 16:19:49;;;;;;;;;;;;;;;;;;4961306;28;19918;-60
2022/06/18 16:22:15;;;;;;;;;;;;;;;;;;4956335;28;20710;-60
2022/06/18 16:24:40;;;;;;;;;;;;;;;;;;4966874;28;19929;-60
2022/06/18 16:27:05;;;;;;;;;;;;;;;;;;4951985;28;19918;-60
2022/06/18 16:29:31;;;;;;;;;;;;;;;;;;4969852;28;19927;-60
2022/06/18 16:31:56;;;;;;;;;;;;;;;;;;4943984;28;19919;-60
2022/06/18 16:34:22;;;;;;;;;;;;;;;;;;4970910;28;20004;-60
2022/06/18 16:36:48;;;;;;;;;;;;;;;;;;4959837;28;19976;-60
2022/06/18 16:39:13;;;;;;;;;;;;;;;;;;4957897;28;20061;-60
2022/06/18 16:41:38;;;;;;;;;;;;;;;;;;4956465;28;20415;-60
2022/06/18 16:44:06;;;;;;;;;;;;;;;;;;4955038;28;20410;-60
2022/06/18 16:46:32;;;;;;;;;;;;;;;;;;4959253;28;19965;-60
2022/06/18 16:48:57;;;;;;;;;;;;;;;;;;4960395;28;20346;-60
2022/06/18 16:51:22;;;;;;;;;;;;;;;;;;4954526;28;20009;-60
2022/06/18 16:53:47;;;;;;;;;;;;;;;;;;4951818;28;19922;-61
2022/06/18 16:56:13;;;;;;;;;;;;;;;;;;4956235;28;19918;-60